Time;durP1;ratioP1;P1;durP2;ratioP2;P2;SDS_P1;SDS_P2;PMS_P1;PMS_P2;Temp;Humidity;BMP_temperature;BMP_pressure;BME280_temperature;BME280_humidity;BME280_pressure;Samples;Min_cycle;Max_cycle;Signal;HPM_P1;HPM_P2
2023/08/18 00:01:50;;;;;;;3.67;0.73;;;;;;;;;;5023204;28;20426;-75
2023/08/18 00:04:16;;;;;;;1.65;0.90;;;;;;;;;;5025117;28;20045;-76
2023/08/18 00:06:42;;;;;;;2.78;0.90;;;;;;;;;;5026052;28;20040;-75
2023/08/18 00:09:08;;;;;;;2.13;0.80;;;;;;;;;;5026224;28;20441;-75
2023/08/18 00:11:35;;;;;;;4.20;1.00;;;;;;;;;;5027101;28;20549;-74
2023/08/18 00:14:00;;;;;;;2.05;0.90;;;;;;;;;;5027168;28;20168;-74
2023/08/18 00:16:27;;;;;;;4.03;0.77;;;;;;;;;;5028296;28;20033;-74
2023/08/18 00:18:53;;;;;;;2.60;0.73;;;;;;;;;;5026960;28;20035;-74
2023/08/18 00:21:19;;;;;;;3.95;0.93;;;;;;;;;;5026079;28;20541;-75
2023/08/18 00:23:45;;;;;;;1.60;1.08;;;;;;;;;;5021689;28;20054;-74
2023/08/18 00:26:11;;;;;;;3.50;1.65;;;;;;;;;;5028756;28;20037;-75
2023/08/18 00:28:37;;;;;;;3.75;1.00;;;;;;;;;;5029309;28;20091;-74
2023/08/18 00:31:03;;;;;;;3.50;0.90;;;;;;;;;;5026921;28;20029;-73
2023/08/18 00:33:29;;;;;;;2.47;1.20;;;;;;;;;;5027427;28;20030;-73
2023/08/18 00:35:55;;;;;;;1.13;0.80;;;;;;;;;;5024788;28;20492;-73
2023/08/18 00:38:21;;;;;;;2.30;0.93;;;;;;;;;;5022165;28;20053;-73
2023/08/18 00:40:47;;;;;;;1.85;0.90;;;;;;;;;;5028522;28;20099;-73
2023/08/18 00:43:13;;;;;;;4.22;1.05;;;;;;;;;;5024279;28;20601;-74
2023/08/18 00:45:39;;;;;;;1.42;0.82;;;;;;;;;;5028285;28;20087;-73
2023/08/18 00:48:05;;;;;;;1.25;0.70;;;;;;;;;;5024229;28;20033;-73
2023/08/18 00:50:31;;;;;;;1.23;0.90;;;;;;;;;;5028062;28;20057;-74
2023/08/18 00:52:59;;;;;;;1.98;1.00;;;;;;;;;;5028141;28;20030;-73
2023/08/18 00:55:26;;;;;;;3.10;1.00;;;;;;;;;;5029133;28;20049;-73
2023/08/18 00:57:55;;;;;;;1.77;0.90;;;;;;;;;;5025314;28;20068;-73
2023/08/18 01:00:23;;;;;;;4.45;1.08;;;;;;;;;;5027224;28;20041;-73
2023/08/18 01:02:50;;;;;;;2.13;0.93;;;;;;;;;;5025428;28;20026;-73
2023/08/18 01:05:16;;;;;;;1.40;1.10;;;;;;;;;;5030682;28;20033;-73
2023/08/18 01:07:43;;;;;;;1.63;1.10;;;;;;;;;;5024543;28;20037;-73
2023/08/18 01:10:09;;;;;;;2.67;1.13;;;;;;;;;;5028185;28;20032;-73
2023/08/18 01:12:53;;;;;;;3.28;1.20;;;;;;;;;;5024711;28;20033;-73
2023/08/18 01:15:23;;;;;;;3.30;1.23;;;;;;;;;;5024743;28;20065;-73
2023/08/18 01:17:55;;;;;;;2.20;1.17;;;;;;;;;;5024811;28;20029;-73
2023/08/18 01:20:22;;;;;;;2.65;1.50;;;;;;;;;;5026583;28;20035;-74
2023/08/18 01:22:58;;;;;;;2.28;1.10;;;;;;;;;;5023678;28;20049;-73
2023/08/18 01:25:25;;;;;;;2.65;1.17;;;;;;;;;;5027838;28;20032;-74
2023/08/18 01:27:52;;;;;;;10.50;5.93;;;;;;;;;;5027648;28;20363;-76
2023/08/18 01:30:19;;;;;;;9.88;4.93;;;;;;;;;;5024569;28;20040;-76
2023/08/18 01:32:47;;;;;;;4.93;2.22;;;;;;;;;;5028141;28;20371;-75
2023/08/18 01:35:14;;;;;;;7.07;1.80;;;;;;;;;;5026357;28;20037;-74
2023/08/18 01:37:41;;;;;;;1.83;1.40;;;;;;;;;;5028156;28;20029;-74
2023/08/18 01:40:10;;;;;;;2.40;1.20;;;;;;;;;;5020854;28;21975;-75
2023/08/18 01:42:36;;;;;;;3.67;1.70;;;;;;;;;;5026543;28;20036;-74
2023/08/18 01:45:03;;;;;;;3.65;1.83;;;;;;;;;;5024652;28;20021;-75
2023/08/18 01:47:29;;;;;;;2.20;1.40;;;;;;;;;;5024359;28;20030;-75
2023/08/18 01:49:56;;;;;;;2.80;1.35;;;;;;;;;;5023978;28;20033;-75
2023/08/18 01:52:22;;;;;;;4.05;1.38;;;;;;;;;;5024002;28;20422;-75
2023/08/18 01:54:50;;;;;;;5.38;2.03;;;;;;;;;;5025111;28;20380;-76
2023/08/18 01:57:16;;;;;;;2.60;1.45;;;;;;;;;;5027573;28;20021;-80
2023/08/18 01:59:42;;;;;;;4.38;1.73;;;;;;;;;;5025134;28;20091;-82
2023/08/18 02:02:08;;;;;;;4.25;1.88;;;;;;;;;;5025907;28;20052;-83
2023/08/18 02:04:34;;;;;;;4.50;1.40;;;;;;;;;;5029076;28;20499;-81
2023/08/18 02:07:00;;;;;;;4.53;1.80;;;;;;;;;;5024939;28;20030;-83
2023/08/18 02:09:26;;;;;;;7.85;1.55;;;;;;;;;;5022726;28;20394;-81
2023/08/18 02:11:52;;;;;;;4.32;1.63;;;;;;;;;;5026401;28;20045;-83
2023/08/18 02:14:18;;;;;;;3.15;1.63;;;;;;;;;;5025108;28;20449;-79
2023/08/18 02:16:44;;;;;;;5.13;1.80;;;;;;;;;;5022973;28;20029;-77
2023/08/18 02:19:10;;;;;;;12.77;6.95;;;;;;;;;;5026226;28;20034;-75
2023/08/18 02:21:37;;;;;;;12.40;7.82;;;;;;;;;;5024158;28;20356;-75
2023/08/18 02:24:04;;;;;;;5.13;3.53;;;;;;;;;;5025220;28;20442;-75
2023/08/18 02:26:30;;;;;;;8.40;2.50;;;;;;;;;;5026668;28;20095;-77
2023/08/18 02:28:56;;;;;;;4.18;1.80;;;;;;;;;;5023402;28;20418;-76
2023/08/18 02:31:22;;;;;;;4.60;2.10;;;;;;;;;;5024201;28;20712;-79
2023/08/18 02:33:48;;;;;;;7.15;1.88;;;;;;;;;;5027090;28;20116;-78
2023/08/18 02:36:14;;;;;;;2.65;1.70;;;;;;;;;;5024159;28;20113;-77
2023/08/18 02:38:40;;;;;;;2.53;1.90;;;;;;;;;;5024195;28;20121;-80
2023/08/18 02:41:07;;;;;;;5.68;2.20;;;;;;;;;;5025567;28;20040;-76
2023/08/18 02:43:33;;;;;;;6.63;1.77;;;;;;;;;;5025479;28;20487;-78
2023/08/18 02:46:00;;;;;;;4.03;2.10;;;;;;;;;;5024020;28;20053;-77
2023/08/18 02:48:27;;;;;;;7.05;5.38;;;;;;;;;;5025549;28;20479;-77
2023/08/18 02:51:06;;;;;;;4.28;3.15;;;;;;;;;;5021342;28;20025;-78
2023/08/18 02:53:32;;;;;;;4.57;2.20;;;;;;;;;;5020150;28;20067;-78
2023/08/18 02:55:58;;;;;;;3.55;2.00;;;;;;;;;;5019548;28;20026;-74
2023/08/18 02:58:28;;;;;;;2.63;1.70;;;;;;;;;;5025812;28;20033;-76
2023/08/18 03:01:01;;;;;;;3.33;1.80;;;;;;;;;;5025574;28;20033;-77
2023/08/18 03:03:27;;;;;;;4.85;2.13;;;;;;;;;;5019686;28;20250;-77
2023/08/18 03:05:53;;;;;;;3.30;1.95;;;;;;;;;;5023082;28;20036;-80
2023/08/18 03:08:19;;;;;;;4.03;1.92;;;;;;;;;;5023138;28;20040;-78
2023/08/18 03:10:55;;;;;;;5.43;2.05;;;;;;;;;;5020843;28;20033;-79
2023/08/18 03:13:21;;;;;;;6.60;2.40;;;;;;;;;;5022311;28;20476;-77
2023/08/18 03:15:47;;;;;;;4.32;1.95;;;;;;;;;;5024317;28;20029;-79
2023/08/18 03:18:13;;;;;;;10.18;4.72;;;;;;;;;;5023167;28;20041;-75
2023/08/18 03:20:39;;;;;;;12.80;6.18;;;;;;;;;;5023347;28;20034;-75
2023/08/18 03:23:05;;;;;;;4.57;2.80;;;;;;;;;;5021596;28;20073;-78
2023/08/18 03:25:31;;;;;;;6.70;2.35;;;;;;;;;;5020882;28;20499;-75
2023/08/18 03:27:57;;;;;;;7.25;2.40;;;;;;;;;;5023818;28;20076;-74
2023/08/18 03:30:23;;;;;;;4.30;1.80;;;;;;;;;;5024871;28;20112;-75
2023/08/18 03:32:51;;;;;;;4.07;1.80;;;;;;;;;;5022910;28;20060;-74
2023/08/18 03:35:17;;;;;;;9.52;1.95;;;;;;;;;;5026250;28;20028;-74
2023/08/18 03:37:43;;;;;;;4.10;2.40;;;;;;;;;;5024936;28;20096;-74
2023/08/18 03:40:09;;;;;;;3.25;2.10;;;;;;;;;;5024924;28;20116;-75
2023/08/18 03:42:35;;;;;;;4.53;2.30;;;;;;;;;;5023649;28;20033;-74
2023/08/18 03:45:01;;;;;;;6.35;2.58;;;;;;;;;;5023592;28;20078;-74
2023/08/18 03:47:27;;;;;;;3.78;2.45;;;;;;;;;;5023383;28;20026;-74
2023/08/18 03:49:54;;;;;;;5.75;2.13;;;;;;;;;;5026226;28;20040;-75
2023/08/18 03:52:20;;;;;;;3.78;2.35;;;;;;;;;;5022863;28;20079;-75
2023/08/18 03:54:46;;;;;;;3.83;2.83;;;;;;;;;;5031058;28;20048;-75
2023/08/18 03:57:12;;;;;;;7.40;2.80;;;;;;;;;;5023279;28;20045;-75
2023/08/18 03:59:38;;;;;;;6.13;2.90;;;;;;;;;;5023524;28;20106;-75
2023/08/18 04:02:04;;;;;;;5.28;2.67;;;;;;;;;;5023461;28;20376;-75
2023/08/18 04:04:30;;;;;;;6.72;2.83;;;;;;;;;;5027639;28;20049;-75
2023/08/18 04:06:56;;;;;;;7.85;3.83;;;;;;;;;;5020342;28;20030;-76
2023/08/18 04:09:22;;;;;;;9.30;3.28;;;;;;;;;;5025384;28;20402;-76
2023/08/18 04:11:48;;;;;;;9.23;3.13;;;;;;;;;;5025813;28;20037;-76
2023/08/18 04:14:16;;;;;;;4.63;2.97;;;;;;;;;;5022263;28;20140;-75
2023/08/18 04:16:42;;;;;;;4.88;3.00;;;;;;;;;;5025036;28;20037;-75
2023/08/18 04:19:09;;;;;;;6.35;3.53;;;;;;;;;;5026155;28;20029;-75
2023/08/18 04:21:35;;;;;;;4.50;3.00;;;;;;;;;;5023025;28;20042;-74
2023/08/18 04:24:02;;;;;;;6.18;3.30;;;;;;;;;;5024354;28;20041;-75
2023/08/18 04:26:29;;;;;;;4.13;3.30;;;;;;;;;;5025336;28;20133;-75
2023/08/18 04:28:55;;;;;;;6.78;2.83;;;;;;;;;;5020138;28;20112;-74
2023/08/18 04:31:21;;;;;;;5.45;3.10;;;;;;;;;;5022107;28;20108;-75
2023/08/18 04:33:47;;;;;;;3.50;3.00;;;;;;;;;;5020571;28;20072;-75
2023/08/18 04:36:14;;;;;;;3.85;3.08;;;;;;;;;;5022123;28;20029;-75
2023/08/18 04:38:40;;;;;;;8.35;3.10;;;;;;;;;;5023205;28;20060;-75
2023/08/18 04:41:06;;;;;;;3.72;2.97;;;;;;;;;;5025395;28;20037;-75
2023/08/18 04:43:34;;;;;;;5.93;3.47;;;;;;;;;;5036639;28;20116;-75
2023/08/18 04:46:00;;;;;;;5.95;3.47;;;;;;;;;;5024186;28;20487;-75
2023/08/18 04:48:26;;;;;;;8.45;3.33;;;;;;;;;;5024183;28;20047;-75
2023/08/18 04:50:52;;;;;;;7.13;3.17;;;;;;;;;;5025029;28;20431;-75
2023/08/18 04:53:18;;;;;;;8.13;3.53;;;;;;;;;;5027633;28;20041;-75
2023/08/18 04:55:44;;;;;;;4.18;3.08;;;;;;;;;;5027176;28;20040;-75
2023/08/18 04:58:13;;;;;;;4.63;3.25;;;;;;;;;;5024679;28;20104;-75
2023/08/18 05:00:40;;;;;;;6.93;3.42;;;;;;;;;;5023584;28;20029;-75
2023/08/18 05:03:06;;;;;;;4.47;3.28;;;;;;;;;;5025978;28;20589;-74
2023/08/18 05:05:39;;;;;;;9.38;3.45;;;;;;;;;;5023064;28;20034;-75
2023/08/18 05:08:05;;;;;;;6.82;3.30;;;;;;;;;;5027613;28;20029;-74
2023/08/18 05:10:31;;;;;;;5.88;4.30;;;;;;;;;;5026819;28;20029;-75
2023/08/18 05:12:57;;;;;;;5.05;3.60;;;;;;;;;;5029780;28;20030;-75
2023/08/18 05:15:24;;;;;;;6.80;3.83;;;;;;;;;;5025857;28;20048;-74
2023/08/18 05:17:50;;;;;;;5.65;3.72;;;;;;;;;;5028753;28;20025;-74
2023/08/18 05:20:16;;;;;;;5.80;3.97;;;;;;;;;;5026562;28;20029;-74
2023/08/18 05:22:42;;;;;;;6.57;4.60;;;;;;;;;;5028598;28;20126;-74
2023/08/18 05:25:08;;;;;;;7.95;4.32;;;;;;;;;;5024988;28;20033;-74
2023/08/18 05:27:34;;;;;;;7.65;4.50;;;;;;;;;;5028886;28;20419;-74
2023/08/18 05:30:00;;;;;;;6.35;3.63;;;;;;;;;;5024714;28;20467;-74
2023/08/18 05:32:27;;;;;;;7.00;4.18;;;;;;;;;;5027115;28;21321;-75
2023/08/18 05:34:56;;;;;;;8.40;3.92;;;;;;;;;;5024122;28;20060;-74
2023/08/18 05:37:23;;;;;;;6.88;4.40;;;;;;;;;;5023803;28;20427;-75
2023/08/18 05:39:49;;;;;;;8.35;4.20;;;;;;;;;;5023812;28;20033;-74
2023/08/18 05:42:15;;;;;;;8.70;4.82;;;;;;;;;;5026711;28;20037;-74
2023/08/18 05:44:44;;;;;;;8.20;4.32;;;;;;;;;;5026767;28;20494;-73
2023/08/18 05:47:10;;;;;;;12.20;4.85;;;;;;;;;;5026636;28;20029;-73
2023/08/18 05:49:36;;;;;;;5.95;4.05;;;;;;;;;;5009366;28;20049;-73
2023/08/18 05:52:02;;;;;;;10.18;4.90;;;;;;;;;;5023663;28;20434;-74
2023/08/18 05:54:28;;;;;;;9.80;5.05;;;;;;;;;;5023022;28;20030;-73
2023/08/18 05:56:54;;;;;;;9.43;5.03;;;;;;;;;;5026389;28;20487;-73
2023/08/18 05:59:20;;;;;;;12.35;5.10;;;;;;;;;;5027095;28;20026;-74
2023/08/18 06:01:46;;;;;;;9.93;4.25;;;;;;;;;;5024410;28;20514;-73
2023/08/18 06:04:12;;;;;;;11.32;4.50;;;;;;;;;;5026293;28;20034;-73
2023/08/18 06:06:38;;;;;;;14.10;5.47;;;;;;;;;;5022076;28;20506;-74
2023/08/18 06:09:04;;;;;;;10.13;5.20;;;;;;;;;;5023943;28;20033;-74
2023/08/18 06:11:31;;;;;;;7.88;4.47;;;;;;;;;;5025074;28;20033;-74
2023/08/18 06:13:57;;;;;;;11.10;4.35;;;;;;;;;;5031150;28;20499;-74
2023/08/18 06:16:23;;;;;;;8.23;4.60;;;;;;;;;;5024433;28;20033;-75
2023/08/18 06:18:49;;;;;;;8.20;4.95;;;;;;;;;;5022362;28;20685;-74
2023/08/18 06:21:15;;;;;;;6.35;4.15;;;;;;;;;;5025336;28;20034;-75
2023/08/18 06:23:41;;;;;;;7.57;4.38;;;;;;;;;;5024346;28;20095;-74
2023/08/18 06:26:07;;;;;;;8.02;4.70;;;;;;;;;;5024788;28;20021;-74
2023/08/18 06:28:33;;;;;;;9.00;4.40;;;;;;;;;;5025263;28;20033;-74
2023/08/18 06:31:03;;;;;;;8.98;4.35;;;;;;;;;;5024237;28;20029;-74
2023/08/18 06:33:29;;;;;;;8.93;5.43;;;;;;;;;;5025333;28;20112;-74
2023/08/18 06:35:55;;;;;;;8.60;5.43;;;;;;;;;;5043612;28;20224;-74
2023/08/18 06:38:21;;;;;;;6.60;4.45;;;;;;;;;;5024513;28;20048;-75
2023/08/18 06:40:47;;;;;;;9.48;4.75;;;;;;;;;;5022075;28;20038;-75
2023/08/18 06:43:13;;;;;;;10.20;4.93;;;;;;;;;;5026826;28;20046;-73
2023/08/18 06:45:39;;;;;;;6.55;4.60;;;;;;;;;;5025701;28;20047;-73
2023/08/18 06:48:05;;;;;;;7.22;4.32;;;;;;;;;;5024564;28;20037;-74
2023/08/18 06:50:31;;;;;;;8.32;4.85;;;;;;;;;;5022565;28;20038;-74
2023/08/18 06:52:57;;;;;;;9.88;5.40;;;;;;;;;;5022240;28;20684;-75
2023/08/18 06:55:23;;;;;;;9.57;5.55;;;;;;;;;;5022512;28;20032;-79
2023/08/18 06:57:50;;;;;;;10.43;5.28;;;;;;;;;;5019698;28;20083;-80
2023/08/18 07:00:18;;;;;;;10.65;4.60;;;;;;;;;;5022075;28;20108;-76
2023/08/18 07:02:44;;;;;;;24.92;14.73;;;;;;;;;;5022127;28;20049;-77
2023/08/18 07:05:12;;;;;;;8.88;7.20;;;;;;;;;;5026069;28;20487;-79
2023/08/18 07:07:38;;;;;;;11.45;5.85;;;;;;;;;;5027062;28;20121;-78
2023/08/18 07:10:05;;;;;;;8.48;5.30;;;;;;;;;;5021906;28;20570;-78
2023/08/18 07:12:31;;;;;;;10.88;5.22;;;;;;;;;;5027275;28;20051;-75
2023/08/18 07:14:57;;;;;;;10.43;4.63;;;;;;;;;;5023672;28;20036;-76
2023/08/18 07:17:23;;;;;;;13.30;5.53;;;;;;;;;;5024606;28;20403;-76
2023/08/18 07:19:49;;;;;;;8.20;4.03;;;;;;;;;;5023211;28;20030;-77
2023/08/18 07:22:15;;;;;;;10.98;5.10;;;;;;;;;;5021507;28;20065;-77
2023/08/18 07:24:41;;;;;;;11.75;5.15;;;;;;;;;;5022125;28;20477;-79
2023/08/18 07:27:07;;;;;;;10.68;4.50;;;;;;;;;;5019538;28;20505;-78
2023/08/18 07:29:34;;;;;;;11.20;5.07;;;;;;;;;;5024070;28;20044;-78
2023/08/18 07:32:00;;;;;;;15.85;7.97;;;;;;;;;;5020113;28;20031;-82
2023/08/18 07:34:26;;;;;;;16.77;8.68;;;;;;;;;;5025048;28;20101;-82
2023/08/18 07:36:52;;;;;;;11.73;6.10;;;;;;;;;;5022813;28;20041;-77
2023/08/18 07:39:18;;;;;;;9.57;5.38;;;;;;;;;;5017771;28;20037;-77
2023/08/18 07:41:44;;;;;;;9.80;6.28;;;;;;;;;;5021283;28;20033;-77
2023/08/18 07:44:11;;;;;;;11.15;5.13;;;;;;;;;;5022313;28;20479;-77
2023/08/18 07:46:37;;;;;;;11.70;5.75;;;;;;;;;;5023722;28;20033;-79
2023/08/18 07:49:04;;;;;;;9.15;5.78;;;;;;;;;;5021501;28;20620;-76
2023/08/18 07:51:30;;;;;;;11.25;5.85;;;;;;;;;;5019837;28;20038;-78
2023/08/18 07:53:56;;;;;;;11.85;6.18;;;;;;;;;;5019874;28;20501;-77
2023/08/18 07:56:22;;;;;;;7.90;5.80;;;;;;;;;;5023092;28;20037;-77
2023/08/18 07:58:48;;;;;;;10.75;4.85;;;;;;;;;;5022683;28;20036;-78
2023/08/18 08:01:16;;;;;;;15.73;10.13;;;;;;;;;;5020685;28;20131;-79
2023/08/18 08:03:42;;;;;;;9.48;6.65;;;;;;;;;;5022078;28;20045;-78
2023/08/18 08:06:08;;;;;;;8.38;4.88;;;;;;;;;;5016732;28;20113;-75
2023/08/18 08:08:34;;;;;;;9.75;5.57;;;;;;;;;;5026997;28;20096;-78
2023/08/18 08:11:00;;;;;;;9.52;5.63;;;;;;;;;;5027390;28;20535;-76
2023/08/18 08:13:26;;;;;;;9.20;4.68;;;;;;;;;;5028034;28;20041;-76
2023/08/18 08:15:52;;;;;;;9.18;5.15;;;;;;;;;;5021427;28;20045;-76
2023/08/18 08:18:19;;;;;;;10.32;4.90;;;;;;;;;;5021637;28;20029;-76
2023/08/18 08:20:45;;;;;;;8.15;4.57;;;;;;;;;;5026229;28;20028;-76
2023/08/18 08:23:11;;;;;;;9.75;4.60;;;;;;;;;;5024314;28;20050;-76
2023/08/18 08:25:40;;;;;;;7.43;4.85;;;;;;;;;;5023546;28;20029;-76
2023/08/18 08:28:07;;;;;;;11.38;5.13;;;;;;;;;;5037268;28;20356;-76
2023/08/18 08:30:33;;;;;;;9.32;4.28;;;;;;;;;;5032600;28;20025;-76
2023/08/18 08:32:59;;;;;;;7.20;3.92;;;;;;;;;;5031335;28;20120;-76
2023/08/18 08:35:25;;;;;;;7.78;4.38;;;;;;;;;;5030617;28;20072;-76
2023/08/18 08:37:51;;;;;;;11.30;4.28;;;;;;;;;;5026656;28;20410;-76
2023/08/18 08:40:20;;;;;;;11.65;5.00;;;;;;;;;;5023021;28;20034;-75
2023/08/18 08:42:48;;;;;;;6.70;3.97;;;;;;;;;;5026362;28;20055;-76
2023/08/18 08:45:15;;;;;;;5.32;3.63;;;;;;;;;;5025504;28;20022;-76
2023/08/18 08:47:43;;;;;;;5.30;3.67;;;;;;;;;;5025880;28;20042;-76
2023/08/18 08:50:09;;;;;;;6.03;3.67;;;;;;;;;;5026050;28;20021;-76
2023/08/18 08:52:39;;;;;;;5.80;3.45;;;;;;;;;;5026446;28;20030;-76
2023/08/18 08:55:06;;;;;;;5.43;3.28;;;;;;;;;;5024821;28;20045;-76
2023/08/18 08:57:32;;;;;;;6.82;3.30;;;;;;;;;;5028797;28;20288;-76
2023/08/18 08:59:59;;;;;;;5.88;3.50;;;;;;;;;;5025737;28;20104;-76
2023/08/18 09:02:25;;;;;;;11.05;3.75;;;;;;;;;;5038772;28;20491;-76
2023/08/18 09:04:51;;;;;;;4.78;3.60;;;;;;;;;;5026088;28;20037;-76
2023/08/18 09:07:17;;;;;;;6.30;3.42;;;;;;;;;;5025335;28;20274;-76
2023/08/18 09:09:43;;;;;;;6.45;3.67;;;;;;;;;;5030693;28;20025;-75
2023/08/18 09:12:10;;;;;;;6.38;3.17;;;;;;;;;;5029197;28;20029;-75
2023/08/18 09:14:38;;;;;;;9.77;4.75;;;;;;;;;;5030116;28;20032;-76
2023/08/18 09:17:04;;;;;;;7.72;3.58;;;;;;;;;;5029801;28;20084;-76
2023/08/18 09:19:30;;;;;;;8.13;3.63;;;;;;;;;;5031225;28;20025;-76
2023/08/18 09:21:59;;;;;;;7.57;4.03;;;;;;;;;;5030670;28;20034;-75
2023/08/18 09:24:25;;;;;;;7.35;3.35;;;;;;;;;;5033900;28;20033;-76
2023/08/18 09:26:52;;;;;;;7.32;3.55;;;;;;;;;;5026926;28;20494;-76
2023/08/18 09:29:18;;;;;;;5.47;3.13;;;;;;;;;;5030810;28;20522;-76
2023/08/18 09:31:45;;;;;;;7.18;3.30;;;;;;;;;;5029934;28;20025;-76
2023/08/18 09:34:19;;;;;;;7.30;4.13;;;;;;;;;;5030749;28;20554;-76
2023/08/18 09:36:51;;;;;;;8.85;4.32;;;;;;;;;;5029834;28;20052;-75
2023/08/18 09:39:17;;;;;;;6.35;3.53;;;;;;;;;;5028432;28;20021;-75
2023/08/18 09:41:46;;;;;;;8.13;3.78;;;;;;;;;;5023797;28;20064;-75
2023/08/18 09:44:12;;;;;;;6.60;3.58;;;;;;;;;;5024564;28;20067;-75
2023/08/18 09:46:38;;;;;;;13.40;4.38;;;;;;;;;;5019307;28;20026;-75
2023/08/18 09:49:06;;;;;;;6.38;3.97;;;;;;;;;;5011065;28;20124;-80
2023/08/18 09:51:33;;;;;;;16.58;10.65;;;;;;;;;;5020597;28;20042;-77
2023/08/18 09:54:00;;;;;;;11.02;5.63;;;;;;;;;;5026174;28;20033;-75
2023/08/18 09:56:29;;;;;;;8.75;4.90;;;;;;;;;;5022175;28;20116;-78
2023/08/18 09:58:58;;;;;;;13.93;4.90;;;;;;;;;;5019978;28;20276;-75
2023/08/18 10:01:26;;;;;;;10.32;5.95;;;;;;;;;;5023988;28;20060;-76
2023/08/18 10:03:53;;;;;;;11.38;5.40;;;;;;;;;;5025648;28;20550;-77
2023/08/18 10:06:20;;;;;;;12.82;5.80;;;;;;;;;;5023246;28;21507;-77
2023/08/18 10:08:46;;;;;;;9.00;4.88;;;;;;;;;;5025371;28;20034;-76
2023/08/18 10:11:13;;;;;;;13.10;5.50;;;;;;;;;;5019631;28;20037;-74
2023/08/18 10:13:40;;;;;;;11.45;6.13;;;;;;;;;;5020993;28;20169;-73
2023/08/18 10:16:06;;;;;;;10.48;5.30;;;;;;;;;;5025247;28;20035;-74
2023/08/18 10:18:33;;;;;;;15.57;8.00;;;;;;;;;;5027142;28;20033;-75
2023/08/18 10:20:59;;;;;;;16.95;7.15;;;;;;;;;;5025325;28;20030;-75
2023/08/18 10:23:28;;;;;;;13.63;7.30;;;;;;;;;;5028936;28;20085;-77
2023/08/18 10:25:54;;;;;;;15.70;6.75;;;;;;;;;;5022320;28;20073;-73
2023/08/18 10:28:21;;;;;;;12.55;5.88;;;;;;;;;;5022036;28;20033;-73
2023/08/18 10:30:51;;;;;;;19.98;6.10;;;;;;;;;;5022173;28;20036;-73
2023/08/18 10:33:27;;;;;;;12.50;6.63;;;;;;;;;;5023910;28;20127;-75
2023/08/18 10:35:56;;;;;;;11.75;6.13;;;;;;;;;;5025331;28;20647;-74
2023/08/18 10:38:26;;;;;;;13.18;6.25;;;;;;;;;;5023121;28;20111;-75
2023/08/18 10:40:52;;;;;;;9.32;4.90;;;;;;;;;;5022648;28;20483;-74
2023/08/18 10:43:18;;;;;;;15.35;5.63;;;;;;;;;;5022627;28;20045;-74
2023/08/18 10:45:49;;;;;;;12.55;5.15;;;;;;;;;;5020195;28;20087;-75
2023/08/18 10:48:15;;;;;;;12.25;6.00;;;;;;;;;;5020053;28;20411;-74
2023/08/18 10:50:46;;;;;;;18.38;10.93;;;;;;;;;;5021400;28;20041;-79
2023/08/18 10:53:12;;;;;;;36.63;25.52;;;;;;;;;;5025963;28;20037;-73
2023/08/18 10:55:39;;;;;;;15.20;9.82;;;;;;;;;;5022107;28;20042;-74
2023/08/18 10:58:05;;;;;;;11.70;5.90;;;;;;;;;;5023929;28;20479;-73
2023/08/18 11:00:32;;;;;;;9.00;4.95;;;;;;;;;;5024224;28;20541;-73
2023/08/18 11:02:58;;;;;;;10.98;5.53;;;;;;;;;;5022305;28;20029;-74
2023/08/18 11:05:25;;;;;;;9.25;6.10;;;;;;;;;;5017321;28;20048;-74
2023/08/18 11:07:51;;;;;;;10.27;6.40;;;;;;;;;;5023318;28;20041;-74
2023/08/18 11:10:21;;;;;;;8.93;5.57;;;;;;;;;;5022880;28;20033;-74
2023/08/18 11:12:48;;;;;;;12.15;5.57;;;;;;;;;;5022686;28;20037;-72
2023/08/18 11:15:15;;;;;;;13.88;6.32;;;;;;;;;;5027022;28;20072;-73
2023/08/18 11:17:41;;;;;;;10.18;6.28;;;;;;;;;;5028453;28;20422;-73
2023/08/18 11:20:08;;;;;;;10.10;4.90;;;;;;;;;;5027883;28;20513;-73
2023/08/18 11:22:37;;;;;;;9.70;6.78;;;;;;;;;;5029411;28;20049;-73
2023/08/18 11:25:07;;;;;;;8.45;5.80;;;;;;;;;;5026943;28;20479;-73
2023/08/18 11:27:33;;;;;;;12.18;7.00;;;;;;;;;;5028530;28;20034;-72
2023/08/18 11:30:00;;;;;;;11.18;5.78;;;;;;;;;;5028049;28;20038;-72
2023/08/18 11:32:27;;;;;;;11.20;5.47;;;;;;;;;;5026172;28;20123;-73
2023/08/18 11:34:53;;;;;;;8.80;5.72;;;;;;;;;;5029514;28;20064;-73
2023/08/18 11:37:21;;;;;;;9.35;5.60;;;;;;;;;;5027966;28;20058;-73
2023/08/18 11:39:47;;;;;;;10.77;5.88;;;;;;;;;;5025883;28;20025;-73
2023/08/18 11:42:13;;;;;;;11.10;5.75;;;;;;;;;;5027424;28;20030;-73
2023/08/18 11:44:39;;;;;;;8.55;5.60;;;;;;;;;;5026007;28;20068;-73
2023/08/18 11:47:07;;;;;;;9.05;4.93;;;;;;;;;;5026440;28;20030;-73
2023/08/18 11:49:33;;;;;;;7.35;5.05;;;;;;;;;;5026873;28;20045;-73
2023/08/18 11:52:00;;;;;;;8.07;5.30;;;;;;;;;;5027587;28;20100;-74
2023/08/18 11:54:30;;;;;;;12.70;6.45;;;;;;;;;;5026518;28;20037;-74
2023/08/18 11:56:57;;;;;;;7.93;5.13;;;;;;;;;;5025172;28;20026;-72
2023/08/18 11:59:23;;;;;;;8.93;5.18;;;;;;;;;;5028277;28;20121;-73
2023/08/18 12:01:59;;;;;;;8.70;4.57;;;;;;;;;;5026745;28;20035;-74
2023/08/18 12:04:25;;;;;;;6.63;4.75;;;;;;;;;;5027466;28;20622;-73
2023/08/18 12:06:52;;;;;;;11.50;5.88;;;;;;;;;;5028380;28;20026;-74
2023/08/18 12:09:18;;;;;;;9.57;5.60;;;;;;;;;;5025553;28;20521;-73
2023/08/18 12:11:44;;;;;;;8.00;5.93;;;;;;;;;;5026654;28;20033;-73
2023/08/18 12:14:10;;;;;;;7.57;4.97;;;;;;;;;;5027913;28;20521;-72
2023/08/18 12:16:37;;;;;;;9.02;5.70;;;;;;;;;;5026070;28;20038;-72
2023/08/18 12:19:06;;;;;;;6.38;4.88;;;;;;;;;;5023508;28;20040;-73
2023/08/18 12:21:32;;;;;;;8.98;5.43;;;;;;;;;;5028174;28;20021;-72
2023/08/18 12:23:59;;;;;;;7.13;5.07;;;;;;;;;;5027530;28;20042;-72
2023/08/18 12:26:25;;;;;;;8.50;5.70;;;;;;;;;;5024548;28;20034;-72
2023/08/18 12:28:52;;;;;;;10.80;4.53;;;;;;;;;;5027107;28;20050;-72
2023/08/18 12:31:22;;;;;;;7.35;4.57;;;;;;;;;;5029403;28;20293;-73
2023/08/18 12:33:48;;;;;;;6.68;5.03;;;;;;;;;;5025469;28;20091;-72
2023/08/18 12:36:14;;;;;;;7.28;5.00;;;;;;;;;;5026113;28;20025;-73
2023/08/18 12:38:41;;;;;;;6.97;4.05;;;;;;;;;;5024426;28;20116;-73
2023/08/18 12:41:07;;;;;;;7.25;4.20;;;;;;;;;;5024160;28;20037;-72
2023/08/18 12:43:33;;;;;;;6.75;4.53;;;;;;;;;;5025077;28;20049;-72
2023/08/18 12:45:59;;;;;;;6.85;4.57;;;;;;;;;;5025370;28;20034;-71
2023/08/18 12:48:25;;;;;;;6.07;4.63;;;;;;;;;;5026449;28;20064;-72
2023/08/18 12:50:51;;;;;;;6.25;4.00;;;;;;;;;;5025582;28;20038;-72
2023/08/18 12:53:17;;;;;;;6.60;4.72;;;;;;;;;;5026510;28;20037;-73
2023/08/18 12:55:43;;;;;;;7.00;4.97;;;;;;;;;;5024016;28;20037;-72
2023/08/18 12:58:09;;;;;;;6.28;4.88;;;;;;;;;;5023724;28;20533;-73
2023/08/18 13:00:35;;;;;;;9.98;5.20;;;;;;;;;;5027726;28;20060;-71
2023/08/18 13:03:01;;;;;;;8.18;5.18;;;;;;;;;;5024635;28;20030;-73
2023/08/18 13:05:27;;;;;;;6.85;4.40;;;;;;;;;;5025280;28;20025;-72
2023/08/18 13:07:53;;;;;;;9.13;5.47;;;;;;;;;;5027378;28;20549;-72
2023/08/18 13:10:19;;;;;;;8.00;4.57;;;;;;;;;;5025850;28;20057;-73
2023/08/18 13:12:45;;;;;;;7.40;4.60;;;;;;;;;;5026963;28;20034;-72
2023/08/18 13:15:11;;;;;;;5.85;4.50;;;;;;;;;;5022577;28;20101;-73
2023/08/18 13:17:39;;;;;;;8.30;4.20;;;;;;;;;;5022896;28;20129;-72
2023/08/18 13:20:06;;;;;;;9.20;4.93;;;;;;;;;;5026784;28;20021;-72
2023/08/18 13:22:32;;;;;;;9.02;4.78;;;;;;;;;;5028757;28;20453;-73
2023/08/18 13:25:07;;;;;;;7.40;5.68;;;;;;;;;;5028900;28;20121;-73
2023/08/18 13:27:33;;;;;;;6.78;4.20;;;;;;;;;;5030895;28;20060;-72
2023/08/18 13:29:59;;;;;;;12.63;5.05;;;;;;;;;;5027039;28;20037;-73
2023/08/18 13:32:25;;;;;;;7.38;4.53;;;;;;;;;;5030582;28;20048;-73
2023/08/18 13:34:51;;;;;;;8.27;5.32;;;;;;;;;;5027514;28;20483;-73
2023/08/18 13:37:17;;;;;;;5.65;4.10;;;;;;;;;;5039017;28;20060;-73
2023/08/18 13:39:43;;;;;;;8.18;5.68;;;;;;;;;;5012165;28;20471;-73
2023/08/18 13:42:09;;;;;;;7.03;4.45;;;;;;;;;;5027553;28;20037;-72
2023/08/18 13:44:35;;;;;;;8.25;4.97;;;;;;;;;;5038403;28;20152;-74
2023/08/18 13:47:01;;;;;;;8.40;4.32;;;;;;;;;;5014161;28;20584;-73
2023/08/18 13:49:27;;;;;;;7.00;4.80;;;;;;;;;;5029105;28;20037;-75
2023/08/18 13:51:54;;;;;;;5.63;3.58;;;;;;;;;;5026602;28;20033;-73
2023/08/18 13:54:20;;;;;;;6.57;4.03;;;;;;;;;;5039877;28;20045;-73
2023/08/18 13:56:46;;;;;;;6.82;4.57;;;;;;;;;;5018720;28;20033;-73
2023/08/18 13:59:12;;;;;;;35.65;19.13;;;;;;;;;;5019905;28;20042;-74
2023/08/18 14:01:38;;;;;;;8.70;6.13;;;;;;;;;;5030098;28;20041;-75
2023/08/18 14:04:04;;;;;;;8.55;5.85;;;;;;;;;;5027837;28;20041;-74
2023/08/18 14:06:30;;;;;;;6.68;4.57;;;;;;;;;;5028739;28;20034;-76
2023/08/18 14:08:57;;;;;;;8.15;4.60;;;;;;;;;;5029431;28;20060;-75
2023/08/18 14:11:23;;;;;;;5.35;4.68;;;;;;;;;;5036253;28;20487;-81
2023/08/18 14:13:49;;;;;;;8.40;4.30;;;;;;;;;;5020475;28;20034;-77
2023/08/18 14:16:15;;;;;;;4.18;3.72;;;;;;;;;;5020813;28;20052;-76
2023/08/18 14:18:41;;;;;;;5.90;4.75;;;;;;;;;;5024758;28;20132;-76
2023/08/18 14:21:07;;;;;;;6.13;4.40;;;;;;;;;;5024737;28;20183;-77
2023/08/18 14:23:33;;;;;;;4.97;4.28;;;;;;;;;;5021858;28;20068;-76
2023/08/18 14:25:59;;;;;;;5.90;4.40;;;;;;;;;;5020201;28;20036;-76
2023/08/18 14:28:25;;;;;;;5.60;4.78;;;;;;;;;;5022661;28;20037;-78
2023/08/18 14:30:51;;;;;;;8.43;4.80;;;;;;;;;;5036099;28;20124;-76
2023/08/18 14:33:17;;;;;;;6.90;4.85;;;;;;;;;;5017214;28;20045;-78
2023/08/18 14:35:43;;;;;;;4.90;3.78;;;;;;;;;;5008844;28;20045;-78
2023/08/18 14:38:09;;;;;;;8.15;5.72;;;;;;;;;;5028854;28;20459;-77